Flight Track Log - Related Links

Times and Time Zones

All times are in EDT time to prevent confusion due to time zone crossing. See the SKW5405 flight status page for this flight to view local times or setup timezone preferences in your user account.

Time Position Orientation Groundspeed Altitude Reporting Facility
EDT Latitude Longitude Course Direction KTS MPH feet Rate Location/Type
Fri 11:22:15 PM 33.1333 -117.3000 253° West 150 173 1,500  Level Southern California TRACON
Fri 11:23:15 PM 33.1167 -117.3667 253° West 196 226 3,500 2,050 Climbing Southern California TRACON
Fri 11:24:15 PM 33.1167 -117.4333 270° West 203 234 5,600 2,211 Climbing Southern California TRACON
Fri 11:25:09 PM 33.1167 -117.5000 270° West 214 246 7,700 1,263 Climbing Southern California TRACON
Fri 11:26:09 PM 33.1667 -117.5500 320° Northwest 259 298 8,000 150 Climbing Southern California TRACON
Fri 11:27:09 PM 33.2167 -117.5833 331° Northwest 270 311 8,000  Level Southern California TRACON
Fri 11:28:15 PM 33.3000 -117.6500 326° Northwest 266 306 8,000  Level Southern California TRACON
Fri 11:29:09 PM 33.3500 -117.6833 331° Northwest 265 305 8,000 53 Level Southern California TRACON
Fri 11:30:09 PM 33.4000 -117.7333 320° Northwest 264 304 8,100  Climbing Southern California TRACON
Fri 11:31:09 PM 33.4667 -117.7833 328° Northwest 265 305 8,000  Descending Southern California TRACON
Fri 11:32:09 PM 33.5333 -117.8500 320° Northwest 266 306 8,100 -100 Climbing Southern California TRACON
Fri 11:33:09 PM 33.5833 -117.9000 320° Northwest 270 311 7,800 -500 Descending Southern California TRACON
Fri 11:34:09 PM 33.6500 -117.9500 328° Northwest 270 311 7,100 -347 Descending Southern California TRACON
Fri 11:35:10 PM 33.7167 -118.0000 328° Northwest 254 292 7,100  Level Southern California TRACON
Fri 11:36:15 PM 33.7833 -118.0500 328° Northwest 288 331 7,100 -333 Level Southern California TRACON
Fri 11:37:16 PM 33.8500 -118.0667 348° North 250 288 6,400 -595 Descending Southern California TRACON
Fri 11:38:16 PM 33.9000 -118.1000 331° Northwest 223 257 5,900 -700 Descending Southern California TRACON
Fri 11:39:16 PM 33.9500 -118.1500 320° Northwest 198 228 5,000 -1,200 Descending Southern California TRACON
Fri 11:39:46 PM 33.9569 -118.1747 289° West 203 234 4,100 -1,370 Descending Los Angeles Center
Fri 11:40:48 PM 33.9531 -118.2372 266° West 191 220 2,900 -1,161 Descending Los Angeles Center
Fri 11:41:50 PM 33.9469 -118.2942 263° West 181 208 1,700 -1,024 Descending Los Angeles Center
Fri 11:42:51 PM 33.9422 -118.3419 263° West 162 186 800 -885 Descending Los Angeles Center
Fri 11:45:00 PM 33.9333 -118.4000 270° West  Level FlightAware Approximate
Fri 11:52:00 PM 33.9425 -118.4081 270° West  Level Estimated

Login

Don't have an account? Register now (free) for customized features, flight alerts, and more!